createdAt,value
2022-10-26T00:01:24.246Z,5.40
2022-10-26T00:03:27.553Z,7.85
2022-10-26T00:05:34.324Z,4.10
2022-10-26T00:07:37.578Z,9.10
2022-10-26T00:09:40.803Z,4.88
2022-10-26T00:11:44.192Z,5.43
2022-10-26T00:13:48.766Z,9.00
2022-10-26T00:15:52.055Z,5.60
2022-10-26T00:17:55.512Z,9.97
2022-10-26T00:20:00.550Z,8.97
2022-10-26T00:22:05.461Z,5.13
2022-10-26T00:24:08.819Z,6.40
2022-10-26T00:26:12.503Z,6.40
2022-10-26T00:28:15.696Z,5.37
2022-10-26T00:30:18.976Z,10.63
2022-10-26T00:32:22.233Z,4.80
2022-10-26T00:34:25.451Z,4.27
2022-10-26T00:36:28.996Z,5.00
2022-10-26T00:38:33.703Z,6.07
2022-10-26T00:40:37.016Z,6.53
2022-10-26T00:42:40.353Z,7.83
2022-10-26T00:45:01.955Z,4.43
2022-10-26T00:47:06.604Z,4.67
2022-10-26T00:49:15.376Z,6.22
2022-10-26T00:51:25.638Z,3.63
2022-10-26T00:53:30.153Z,4.23
2022-10-26T00:55:38.729Z,4.83
2022-10-26T00:57:42.576Z,7.40
2022-10-26T00:59:47.546Z,6.00
2022-10-26T01:01:52.074Z,3.03
2022-10-26T01:03:55.470Z,2.80
2022-10-26T01:05:59.419Z,2.70
2022-10-26T01:08:03.987Z,6.50
2022-10-26T01:10:08.588Z,5.50
2022-10-26T01:12:13.312Z,5.90
2022-10-26T01:14:19.119Z,5.97
2022-10-26T01:16:51.625Z,8.00
2022-10-26T01:19:06.599Z,6.17
2022-10-26T01:21:43.946Z,7.20
2022-10-26T01:24:03.684Z,3.30
2022-10-26T01:26:27.601Z,3.37
2022-10-26T01:28:48.676Z,3.97
2022-10-26T01:30:54.445Z,9.07
2022-10-26T01:33:22.695Z,4.57
2022-10-26T01:35:31.606Z,5.93
2022-10-26T01:37:40.156Z,3.97
2022-10-26T01:39:49.383Z,4.70
2022-10-26T01:41:57.695Z,5.97
2022-10-26T01:44:04.384Z,8.90
2022-10-26T01:46:10.883Z,4.43
2022-10-26T01:48:17.857Z,5.10
2022-10-26T01:50:22.123Z,4.40
2022-10-26T01:52:25.571Z,11.07
2022-10-26T01:54:29.416Z,4.70
2022-10-26T01:56:36.487Z,5.20
2022-10-26T01:59:04.684Z,4.40
2022-10-26T02:01:21.405Z,4.07
2022-10-26T02:03:31.124Z,7.30
2022-10-26T02:06:01.920Z,3.87
2022-10-26T02:08:20.614Z,4.20
2022-10-26T02:10:34.592Z,6.30
2022-10-26T02:12:45.309Z,5.00
2022-10-26T02:14:51.820Z,5.50
2022-10-26T02:16:58.606Z,6.63
2022-10-26T02:19:06.855Z,11.67
2022-10-26T02:21:17.718Z,8.70
2022-10-26T02:23:22.900Z,5.37
2022-10-26T02:25:30.994Z,7.50
2022-10-26T02:27:39.718Z,10.43
2022-10-26T02:29:44.853Z,5.60
2022-10-26T02:31:50.813Z,10.67
2022-10-26T02:33:58.244Z,13.00
2022-10-26T02:36:04.508Z,11.90
2022-10-26T02:38:11.555Z,9.23
2022-10-26T02:40:18.815Z,8.60
2022-10-26T02:42:23.948Z,8.83
2022-10-26T02:44:30.335Z,9.67
2022-10-26T02:46:33.850Z,6.80
2022-10-26T02:48:37.865Z,11.40
2022-10-26T02:50:52.169Z,6.13
2022-10-26T02:53:03.751Z,8.23
2022-10-26T02:55:12.968Z,7.63
2022-10-26T02:57:20.013Z,8.90
2022-10-26T02:59:26.205Z,8.27
2022-10-26T03:01:30.618Z,11.30
2022-10-26T03:03:34.750Z,6.10
2022-10-26T03:05:42.842Z,12.50
2022-10-26T03:07:47.449Z,5.53
2022-10-26T03:09:50.730Z,8.20
2022-10-26T03:11:54.299Z,8.23
2022-10-26T03:13:57.657Z,8.60
2022-10-26T03:16:00.873Z,5.60
2022-10-26T03:18:05.343Z,6.33
2022-10-26T03:20:10.054Z,8.67
2022-10-26T03:22:13.240Z,10.20
2022-10-26T03:24:17.777Z,8.20
2022-10-26T03:26:20.907Z,5.70
2022-10-26T03:28:24.149Z,12.10
2022-10-26T03:30:28.312Z,11.13
2022-10-26T03:32:31.467Z,5.80
2022-10-26T03:34:34.786Z,7.63
2022-10-26T03:36:37.924Z,6.73
2022-10-26T03:38:41.170Z,12.60
2022-10-26T03:40:48.602Z,4.90
2022-10-26T03:42:52.330Z,7.60
2022-10-26T03:44:55.875Z,3.67
2022-10-26T03:46:59.129Z,4.93
2022-10-26T03:49:02.298Z,6.00
2022-10-26T03:51:05.765Z,3.93
2022-10-26T03:53:09.306Z,5.70
2022-10-26T03:55:12.599Z,5.27
2022-10-26T03:57:17.201Z,5.33
2022-10-26T03:59:20.407Z,9.40
2022-10-26T04:01:24.064Z,8.20
2022-10-26T04:03:27.702Z,7.57
2022-10-26T04:05:31.243Z,9.77
2022-10-26T04:07:35.360Z,11.07
2022-10-26T04:09:38.574Z,8.63
2022-10-26T04:11:41.845Z,12.20
2022-10-26T04:13:46.546Z,7.17
2022-10-26T04:15:49.850Z,10.30
2022-10-26T04:17:58.041Z,8.37
2022-10-26T04:20:01.272Z,8.40
2022-10-26T04:22:04.680Z,8.50
2022-10-26T04:24:08.340Z,7.30
2022-10-26T04:26:11.572Z,8.17
2022-10-26T04:28:15.740Z,8.93
2022-10-26T04:30:20.528Z,7.50
2022-10-26T04:32:23.778Z,16.77
2022-10-26T04:34:27.029Z,14.10
2022-10-26T04:36:31.096Z,11.73
2022-10-26T04:38:34.338Z,9.90
2022-10-26T04:40:37.815Z,12.53
2022-10-26T04:42:42.746Z,10.50
2022-10-26T04:44:45.962Z,10.57
2022-10-26T04:46:50.596Z,9.90
2022-10-26T04:48:53.742Z,9.50
2022-10-26T04:51:00.100Z,8.23
2022-10-26T04:53:03.695Z,8.80
2022-10-26T04:55:07.788Z,8.20
2022-10-26T04:57:11.648Z,10.80
2022-10-26T04:59:14.795Z,11.03
2022-10-26T05:01:18.163Z,8.63
2022-10-26T05:03:22.936Z,8.77
2022-10-26T05:05:26.207Z,7.87
2022-10-26T05:07:29.389Z,12.63
2022-10-26T05:09:32.575Z,12.40
2022-10-26T05:11:35.795Z,7.07
2022-10-26T05:13:39.077Z,8.60
2022-10-26T05:15:42.241Z,9.90
2022-10-26T05:17:45.509Z,7.40
2022-10-26T05:19:55.376Z,11.80
2022-10-26T05:21:58.698Z,7.63
2022-10-26T05:24:01.938Z,7.33
2022-10-26T05:26:05.776Z,8.70
2022-10-26T05:28:13.448Z,5.47
2022-10-26T05:30:16.870Z,12.20
2022-10-26T05:32:20.312Z,8.80
2022-10-26T05:34:23.498Z,8.77
2022-10-26T05:36:28.145Z,8.80
2022-10-26T05:38:31.358Z,8.40
2022-10-26T05:40:34.902Z,7.43
2022-10-26T05:42:38.092Z,11.73
2022-10-26T05:44:41.482Z,8.43
2022-10-26T05:46:44.952Z,8.63
2022-10-26T05:48:48.166Z,6.90
2022-10-26T05:50:51.481Z,6.87
2022-10-26T05:52:56.102Z,6.07
2022-10-26T05:54:59.292Z,7.43
2022-10-26T05:57:03.191Z,6.27
2022-10-26T05:59:11.962Z,6.33
2022-10-26T06:01:27.698Z,8.30
2022-10-26T06:03:42.553Z,5.60
2022-10-26T06:05:55.470Z,27.40
2022-10-26T06:08:00.452Z,5.80
2022-10-26T06:10:04.367Z,7.43
2022-10-26T06:12:08.756Z,6.37
2022-10-26T06:14:12.725Z,8.60
2022-10-26T06:16:31.803Z,5.97
2022-10-26T06:18:48.709Z,7.40
2022-10-26T06:21:06.217Z,8.97
2022-10-26T06:23:23.948Z,5.67
2022-10-26T06:25:35.220Z,5.20
2022-10-26T06:27:46.574Z,7.23
2022-10-26T06:29:57.443Z,6.87
2022-10-26T06:32:00.832Z,7.10
2022-10-26T06:34:04.944Z,7.57
2022-10-26T06:36:21.724Z,5.03
2022-10-26T06:38:30.604Z,6.03
2022-10-26T06:40:36.572Z,7.10
2022-10-26T06:42:40.120Z,5.00
2022-10-26T06:44:44.224Z,5.97
2022-10-26T06:46:52.269Z,11.47
2022-10-26T06:49:02.131Z,5.83
2022-10-26T06:51:06.107Z,6.43
2022-10-26T06:53:21.655Z,5.10
2022-10-26T06:55:27.537Z,8.27
2022-10-26T06:57:35.710Z,10.13
2022-10-26T06:59:43.848Z,4.50
2022-10-26T07:01:47.326Z,4.83
2022-10-26T07:03:50.704Z,5.17
2022-10-26T07:05:54.026Z,6.97
2022-10-26T07:07:57.479Z,6.37
2022-10-26T07:10:00.701Z,4.63
2022-10-26T07:12:05.996Z,6.30
2022-10-26T07:14:09.535Z,5.87
2022-10-26T07:16:12.762Z,7.23
2022-10-26T07:18:16.080Z,4.13
2022-10-26T07:20:21.349Z,6.50
2022-10-26T07:22:25.335Z,7.67
2022-10-26T07:24:28.825Z,5.53
2022-10-26T07:26:32.242Z,4.47
2022-10-26T07:28:37.632Z,5.17
2022-10-26T07:30:41.947Z,6.30
2022-10-26T07:32:45.719Z,5.73
2022-10-26T07:34:49.061Z,6.90
2022-10-26T07:36:53.070Z,5.00
2022-10-26T07:38:56.307Z,3.43
2022-10-26T07:40:59.489Z,4.60
2022-10-26T07:43:02.734Z,7.67
2022-10-26T07:45:09.179Z,4.87
2022-10-26T07:47:12.436Z,6.07
2022-10-26T07:49:19.177Z,4.33
2022-10-26T07:51:23.749Z,3.07
2022-10-26T07:53:28.069Z,4.40
2022-10-26T07:55:31.421Z,5.50
2022-10-26T07:57:35.827Z,3.70
2022-10-26T07:59:39.167Z,3.70
2022-10-26T08:01:43.914Z,3.47
2022-10-26T08:03:47.233Z,4.00
2022-10-26T08:05:55.921Z,5.20
2022-10-26T08:07:59.335Z,4.97
2022-10-26T08:10:04.680Z,6.97
2022-10-26T08:12:08.152Z,4.73
2022-10-26T08:14:12.609Z,7.43
2022-10-26T08:16:19.568Z,3.73
2022-10-26T08:18:24.186Z,3.30
2022-10-26T08:20:27.586Z,6.13
2022-10-26T08:22:31.257Z,4.27
2022-10-26T08:24:34.524Z,4.33
2022-10-26T08:26:38.414Z,2.97
2022-10-26T08:28:42.626Z,3.83
2022-10-26T08:30:45.979Z,3.47
2022-10-26T08:32:49.455Z,4.10
2022-10-26T08:34:54.230Z,8.70
2022-10-26T08:36:57.986Z,4.83
2022-10-26T08:39:01.223Z,5.33
2022-10-26T08:41:10.627Z,6.23
2022-10-26T08:43:22.409Z,4.77
2022-10-26T08:45:34.341Z,3.47
2022-10-26T08:47:44.425Z,3.70
2022-10-26T08:49:56.169Z,4.07
2022-10-26T08:52:02.597Z,5.13
2022-10-26T08:54:08.620Z,4.57
2022-10-26T08:56:19.043Z,6.23
2022-10-26T08:58:24.857Z,8.10
2022-10-26T09:00:29.014Z,5.20
2022-10-26T09:02:32.639Z,4.20
2022-10-26T09:04:36.336Z,7.43
2022-10-26T09:06:48.356Z,2.90
2022-10-26T09:08:57.118Z,4.20
2022-10-26T09:11:04.637Z,4.20
2022-10-26T09:13:11.001Z,3.63
2022-10-26T09:15:17.040Z,3.60
2022-10-26T09:17:25.967Z,4.07
2022-10-26T09:19:47.456Z,3.30
2022-10-26T09:21:57.589Z,4.90
2022-10-26T09:24:04.439Z,5.67
2022-10-26T09:26:12.687Z,6.53
2022-10-26T09:28:18.508Z,5.33
2022-10-26T09:30:22.775Z,5.80
2022-10-26T09:32:28.712Z,2.83
2022-10-26T09:34:35.823Z,3.80
2022-10-26T09:36:39.373Z,3.20
2022-10-26T09:38:49.028Z,2.90
2022-10-26T09:40:56.066Z,3.87
2022-10-26T09:43:01.042Z,5.40
2022-10-26T09:45:13.128Z,3.80
2022-10-26T09:47:25.437Z,4.03
2022-10-26T09:49:33.154Z,4.57
2022-10-26T09:51:38.420Z,4.60
2022-10-26T09:53:43.109Z,2.90
2022-10-26T09:55:50.217Z,8.53
2022-10-26T09:57:56.397Z,2.40
2022-10-26T09:59:59.891Z,3.40
2022-10-26T10:02:03.441Z,3.60
2022-10-26T10:04:21.295Z,3.40
2022-10-26T10:06:25.972Z,2.93
2022-10-26T10:08:29.263Z,4.60
2022-10-26T10:10:34.318Z,10.10
2022-10-26T10:12:37.934Z,3.10
2022-10-26T10:14:43.274Z,2.47
2022-10-26T10:16:57.041Z,2.03
2022-10-26T10:19:01.587Z,3.20
2022-10-26T10:21:06.055Z,3.63
2022-10-26T10:23:23.244Z,3.80
2022-10-26T10:25:34.364Z,2.30
2022-10-26T10:27:39.329Z,3.40
2022-10-26T10:29:43.683Z,3.70
2022-10-26T10:31:57.414Z,2.97
2022-10-26T10:34:00.985Z,4.23
2022-10-26T10:36:05.683Z,1.47
2022-10-26T10:38:14.779Z,1.97
2022-10-26T10:40:21.346Z,2.00
2022-10-26T10:42:27.194Z,1.63
2022-10-26T10:44:35.504Z,2.93
2022-10-26T10:46:39.367Z,2.57
2022-10-26T10:48:48.551Z,4.70
2022-10-26T10:50:57.147Z,4.03
2022-10-26T10:53:16.733Z,1.87
2022-10-26T10:55:21.915Z,2.53
2022-10-26T10:57:31.636Z,6.10
2022-10-26T10:59:50.033Z,6.37
2022-10-26T11:02:01.322Z,1.17
2022-10-26T11:06:23.011Z,1.50
2022-10-26T11:08:29.143Z,5.27
2022-10-26T11:10:35.945Z,4.83
2022-10-26T11:12:44.305Z,1.60
2022-10-26T11:14:49.779Z,5.90
2022-10-26T11:16:55.165Z,3.50
2022-10-26T11:19:03.053Z,3.10
2022-10-26T11:21:13.875Z,2.23
2022-10-26T11:23:20.945Z,8.60
2022-10-26T11:25:26.549Z,3.03
2022-10-26T11:27:32.911Z,2.97
2022-10-26T11:29:41.713Z,2.63
2022-10-26T11:31:50.241Z,2.60
2022-10-26T11:34:00.179Z,3.70
2022-10-26T11:36:10.955Z,1.87
2022-10-26T11:38:23.793Z,3.10
2022-10-26T11:40:43.536Z,2.20
2022-10-26T11:42:49.985Z,2.73
2022-10-26T11:44:55.135Z,4.00
2022-10-26T11:47:00.166Z,2.90
2022-10-26T11:49:07.807Z,6.10
2022-10-26T11:51:16.166Z,3.70
2022-10-26T11:53:20.582Z,7.13
2022-10-26T11:55:24.703Z,5.87
2022-10-26T11:57:30.147Z,4.80
2022-10-26T11:59:39.055Z,4.00
2022-10-26T12:01:42.701Z,5.37
2022-10-26T12:03:48.666Z,5.93
2022-10-26T12:05:52.884Z,12.40
2022-10-26T12:07:59.987Z,12.00
2022-10-26T12:10:04.750Z,5.10
2022-10-26T12:12:10.611Z,3.60
2022-10-26T12:14:21.633Z,10.27
2022-10-26T12:16:30.440Z,5.47
2022-10-26T12:18:54.466Z,7.37
2022-10-26T12:21:06.080Z,5.47
2022-10-26T12:23:19.050Z,5.80
2022-10-26T12:25:31.749Z,3.53
2022-10-26T12:27:50.949Z,8.53
2022-10-26T12:30:14.632Z,9.50
2022-10-26T12:32:51.644Z,4.80
2022-10-26T12:35:06.022Z,4.20
2022-10-26T12:37:13.447Z,5.50
2022-10-26T12:39:37.981Z,3.33
2022-10-26T12:41:42.907Z,6.13
2022-10-26T12:43:46.503Z,7.73
2022-10-26T12:46:06.687Z,4.03
2022-10-26T12:48:38.809Z,4.43
2022-10-26T12:50:43.009Z,8.33
2022-10-26T12:52:51.811Z,10.07
2022-10-26T12:55:22.831Z,4.33
2022-10-26T12:57:29.543Z,6.47
2022-10-26T12:59:39.359Z,6.63
2022-10-26T13:02:03.769Z,8.53
2022-10-26T13:04:13.974Z,9.27
2022-10-26T13:06:25.456Z,4.93
2022-10-26T13:08:29.359Z,6.33
2022-10-26T13:10:33.233Z,4.97
2022-10-26T13:12:40.138Z,6.27
2022-10-26T13:14:55.147Z,4.77
2022-10-26T13:16:59.006Z,4.80
2022-10-26T13:19:02.706Z,3.87
2022-10-26T13:21:09.460Z,7.67
2022-10-26T13:23:18.040Z,4.43
2022-10-26T13:25:24.263Z,7.80
2022-10-26T13:27:43.628Z,5.10
2022-10-26T13:30:05.384Z,5.60
2022-10-26T13:32:09.036Z,5.87
2022-10-26T13:34:16.793Z,5.53
2022-10-26T13:36:22.936Z,4.40
2022-10-26T13:38:29.964Z,3.87
2022-10-26T13:40:34.491Z,4.47
2022-10-26T13:42:44.153Z,6.50
2022-10-26T13:44:52.597Z,4.60
2022-10-26T13:46:57.456Z,5.07
2022-10-26T13:49:02.660Z,6.33
2022-10-26T13:51:11.622Z,4.87
2022-10-26T13:53:18.616Z,10.27
2022-10-26T13:55:24.054Z,4.37
2022-10-26T13:57:31.420Z,8.30
2022-10-26T13:59:36.264Z,5.00
2022-10-26T14:01:41.390Z,5.43
2022-10-26T14:03:45.391Z,4.83
2022-10-26T14:05:51.852Z,6.07
2022-10-26T14:07:57.339Z,6.07
2022-10-26T14:10:01.333Z,8.10
2022-10-26T14:12:04.931Z,7.53
2022-10-26T14:14:08.524Z,5.63
2022-10-26T14:16:14.394Z,10.30
2022-10-26T14:18:26.337Z,12.80
2022-10-26T14:20:30.548Z,9.20
2022-10-26T14:22:34.120Z,9.30
2022-10-26T14:24:47.178Z,5.10
2022-10-26T14:26:51.067Z,7.20
2022-10-26T14:28:56.304Z,4.30
2022-10-26T14:31:16.479Z,3.87
2022-10-26T14:33:29.743Z,3.90
2022-10-26T14:35:36.222Z,4.27
2022-10-26T14:37:42.031Z,4.33
2022-10-26T14:39:46.341Z,8.07
2022-10-26T14:41:50.862Z,3.67
2022-10-26T14:43:54.401Z,7.90
2022-10-26T14:45:58.156Z,4.77
2022-10-26T14:48:02.191Z,3.40
2022-10-26T14:50:07.706Z,5.33
2022-10-26T14:52:14.927Z,4.40
2022-10-26T14:54:22.993Z,5.00
2022-10-26T14:56:28.794Z,5.07
2022-10-26T14:58:32.747Z,5.10
2022-10-26T15:00:36.345Z,4.30
2022-10-26T15:02:40.123Z,5.97
2022-10-26T15:04:44.403Z,6.20
2022-10-26T15:06:49.345Z,6.10
2022-10-26T15:08:57.147Z,6.40
2022-10-26T15:11:11.477Z,4.47
2022-10-26T15:13:28.058Z,3.97
2022-10-26T15:15:31.641Z,3.20
2022-10-26T15:17:38.805Z,5.77
2022-10-26T15:19:42.629Z,4.93
2022-10-26T15:21:48.115Z,4.40
2022-10-26T15:23:54.208Z,6.17
2022-10-26T15:25:58.583Z,8.53
2022-10-26T15:28:11.573Z,10.47
2022-10-26T15:30:23.068Z,7.53
2022-10-26T15:32:31.695Z,6.43
2022-10-26T15:34:35.191Z,7.30
2022-10-26T15:36:38.849Z,8.80
2022-10-26T15:38:42.325Z,6.20
2022-10-26T15:40:47.164Z,6.60
2022-10-26T15:42:53.111Z,14.97
2022-10-26T15:44:56.867Z,10.50
2022-10-26T15:47:06.389Z,14.70
2022-10-26T15:49:17.990Z,14.37
2022-10-26T15:51:21.212Z,12.57
2022-10-26T15:53:27.611Z,10.60
2022-10-26T15:55:32.052Z,13.17
2022-10-26T15:57:36.919Z,13.17
2022-10-26T15:59:40.368Z,17.37
2022-10-26T16:01:43.694Z,14.37
2022-10-26T16:03:47.454Z,19.20
2022-10-26T16:05:53.391Z,19.60
2022-10-26T16:08:00.296Z,28.50
2022-10-26T16:10:03.584Z,17.53
2022-10-26T16:12:07.422Z,13.80
2022-10-26T16:14:12.928Z,16.20
2022-10-26T16:16:18.382Z,21.10
2022-10-26T16:18:21.591Z,11.03
2022-10-26T16:20:27.665Z,10.90
2022-10-26T16:22:32.706Z,21.27
2022-10-26T16:24:38.118Z,14.17
2022-10-26T16:26:41.410Z,14.13
2022-10-26T16:28:45.120Z,10.00
2022-10-26T16:30:49.857Z,7.10
2022-10-26T16:32:53.874Z,15.33
2022-10-26T16:34:57.133Z,26.80
2022-10-26T16:37:00.583Z,22.10
2022-10-26T16:39:03.842Z,19.40
2022-10-26T16:41:08.697Z,16.40
2022-10-26T16:43:12.080Z,11.17
2022-10-26T16:45:16.295Z,11.90
2022-10-26T16:49:29.182Z,9.60
2022-10-26T16:51:32.328Z,10.93
2022-10-26T16:53:35.853Z,12.13
2022-10-26T16:55:39.298Z,13.07
2022-10-26T16:57:42.597Z,12.10
2022-10-26T16:59:46.124Z,19.17
2022-10-26T17:01:49.525Z,17.13
2022-10-26T17:03:54.964Z,8.90
2022-10-26T17:05:59.292Z,7.80
2022-10-26T17:08:02.668Z,14.03
2022-10-26T17:10:06.780Z,6.70
2022-10-26T17:12:11.140Z,6.20
2022-10-26T17:14:14.472Z,10.70
2022-10-26T17:16:19.951Z,12.13
2022-10-26T17:18:23.322Z,15.00
2022-10-26T17:20:28.146Z,14.30
2022-10-26T17:22:31.270Z,17.83
2022-10-26T17:24:34.461Z,15.47
2022-10-26T17:26:37.709Z,7.70
2022-10-26T17:28:40.994Z,10.07
2022-10-26T17:30:44.842Z,11.30
2022-10-26T17:32:48.304Z,13.47
2022-10-26T17:34:51.622Z,15.70
2022-10-26T17:36:56.363Z,8.80
2022-10-26T17:39:00.828Z,6.80
2022-10-26T17:41:05.281Z,4.97
2022-10-26T17:43:08.473Z,7.50
2022-10-26T17:45:12.233Z,10.37
2022-10-26T17:47:15.400Z,9.60
2022-10-26T17:49:20.514Z,8.70
2022-10-26T17:51:28.090Z,10.37
2022-10-26T17:53:33.026Z,13.60
2022-10-26T17:55:36.704Z,10.73
2022-10-26T17:57:39.853Z,16.60
2022-10-26T17:59:43.119Z,11.43
2022-10-26T18:01:46.573Z,14.47
2022-10-26T18:03:49.863Z,19.23
2022-10-26T18:05:53.360Z,14.73
2022-10-26T18:07:56.622Z,15.37
2022-10-26T18:10:19.627Z,16.07
2022-10-26T18:12:24.678Z,15.23
2022-10-26T18:14:27.847Z,12.57
2022-10-26T18:16:31.284Z,13.73
2022-10-26T18:18:34.979Z,12.53
2022-10-26T18:20:38.199Z,14.00
2022-10-26T18:22:41.327Z,14.27
2022-10-26T18:24:44.565Z,13.63
2022-10-26T18:26:49.265Z,13.70
2022-10-26T18:28:52.523Z,14.07
2022-10-26T18:31:00.302Z,12.97
2022-10-26T18:33:03.458Z,7.77
2022-10-26T18:35:07.262Z,8.97
2022-10-26T18:37:10.424Z,17.03
2022-10-26T18:39:13.741Z,9.80
2022-10-26T18:41:20.285Z,9.53
2022-10-26T18:43:25.156Z,11.87
2022-10-26T18:45:28.400Z,10.47
2022-10-26T18:47:32.684Z,11.03
2022-10-26T18:49:35.843Z,13.53
2022-10-26T18:51:39.444Z,11.67
2022-10-26T18:53:44.341Z,10.43
2022-10-26T18:55:47.642Z,9.13
2022-10-26T18:57:51.113Z,8.27
2022-10-26T18:59:56.003Z,9.13
2022-10-26T19:01:59.496Z,10.03
2022-10-26T19:04:04.578Z,9.80
2022-10-26T19:06:12.267Z,13.97
2022-10-26T19:08:15.556Z,10.20
2022-10-26T19:10:18.868Z,8.90
2022-10-26T19:12:22.238Z,10.40
2022-10-26T19:14:27.216Z,8.10
2022-10-26T19:16:45.394Z,11.60
2022-10-26T19:18:50.756Z,10.20
2022-10-26T19:20:59.203Z,7.77
2022-10-26T19:23:02.442Z,13.00
2022-10-26T19:25:06.247Z,10.60
2022-10-26T19:27:09.907Z,9.33
2022-10-26T19:29:15.183Z,8.23
2022-10-26T19:31:21.499Z,13.03
2022-10-26T19:33:29.151Z,11.30
2022-10-26T19:35:32.577Z,13.50
2022-10-26T19:37:36.020Z,10.53
2022-10-26T19:39:39.454Z,8.33
2022-10-26T19:41:42.910Z,11.40
2022-10-26T19:43:46.577Z,9.83
2022-10-26T19:45:50.411Z,8.83
2022-10-26T19:47:53.654Z,17.40
2022-10-26T19:49:59.671Z,12.43
2022-10-26T19:52:03.258Z,9.57
2022-10-26T19:54:07.539Z,8.73
2022-10-26T19:56:13.483Z,12.90
2022-10-26T19:58:17.211Z,11.33
2022-10-26T20:00:20.973Z,9.57
2022-10-26T20:02:24.263Z,11.10
2022-10-26T20:04:28.106Z,7.77
2022-10-26T20:06:32.997Z,11.10
2022-10-26T20:08:36.788Z,9.90
2022-10-26T20:10:42.303Z,10.93
2022-10-26T20:12:45.490Z,7.43
2022-10-26T20:14:49.176Z,7.10
2022-10-26T20:16:54.402Z,10.83
2022-10-26T20:18:57.496Z,8.23
2022-10-26T20:21:00.708Z,8.80
2022-10-26T20:23:06.213Z,9.07
2022-10-26T20:25:10.217Z,8.87
2022-10-26T20:27:13.503Z,6.73
2022-10-26T20:29:16.997Z,13.03
2022-10-26T20:31:20.498Z,6.67
2022-10-26T20:33:23.606Z,5.97
2022-10-26T20:35:27.217Z,6.73
2022-10-26T20:37:31.254Z,6.30
2022-10-26T20:39:36.786Z,5.67
2022-10-26T20:41:43.295Z,8.83
2022-10-26T20:43:47.097Z,6.20
2022-10-26T20:45:51.108Z,9.50
2022-10-26T20:47:55.547Z,7.40
2022-10-26T20:49:59.527Z,11.30
2022-10-26T20:52:20.662Z,7.60
2022-10-26T20:54:29.965Z,12.27
2022-10-26T20:56:35.526Z,6.27
2022-10-26T20:58:42.900Z,7.73
2022-10-26T21:00:54.720Z,10.60
2022-10-26T21:02:58.079Z,6.27
2022-10-26T21:05:01.673Z,6.90
2022-10-26T21:07:05.066Z,9.07
2022-10-26T21:09:09.283Z,6.13
2022-10-26T21:11:12.670Z,7.07
2022-10-26T21:13:17.596Z,6.07
2022-10-26T21:15:20.847Z,6.73
2022-10-26T21:17:24.479Z,12.93
2022-10-26T21:19:27.667Z,6.63
2022-10-26T21:21:30.945Z,6.40
2022-10-26T21:23:36.525Z,7.00
2022-10-26T21:25:39.860Z,7.57
2022-10-26T21:27:43.096Z,8.43
2022-10-26T21:29:47.619Z,6.53
2022-10-26T21:31:52.050Z,9.80
2022-10-26T21:33:55.413Z,13.73
2022-10-26T21:35:58.993Z,8.23
2022-10-26T21:38:02.179Z,7.50
2022-10-26T21:40:06.095Z,8.47
2022-10-26T21:42:09.681Z,7.10
2022-10-26T21:44:23.518Z,9.00
2022-10-26T21:46:38.274Z,9.40
2022-10-26T21:48:42.143Z,6.00
2022-10-26T21:50:45.344Z,14.93
2022-10-26T21:52:48.720Z,9.70
2022-10-26T21:54:52.173Z,5.77
2022-10-26T21:56:55.973Z,10.93
2022-10-26T21:59:00.985Z,12.40
2022-10-26T22:01:08.235Z,7.67
2022-10-26T22:03:13.375Z,7.00
2022-10-26T22:05:16.620Z,8.33
2022-10-26T22:07:20.103Z,8.10
2022-10-26T22:09:23.497Z,8.40
2022-10-26T22:11:26.938Z,5.33
2022-10-26T22:13:30.462Z,9.73
2022-10-26T22:15:33.775Z,6.10
2022-10-26T22:17:39.318Z,4.53
2022-10-26T22:19:44.428Z,6.53
2022-10-26T22:21:47.655Z,6.10
2022-10-26T22:23:51.031Z,10.03
2022-10-26T22:25:54.539Z,6.20
2022-10-26T22:27:57.818Z,4.43
2022-10-26T22:30:01.111Z,10.93
2022-10-26T22:32:04.684Z,10.53
2022-10-26T22:34:09.832Z,7.23
2022-10-26T22:36:16.145Z,6.60
2022-10-26T22:38:19.432Z,8.57
2022-10-26T22:40:22.600Z,5.93
2022-10-26T22:42:25.943Z,6.27
2022-10-26T22:44:29.363Z,8.43
2022-10-26T22:46:32.724Z,10.43
2022-10-26T22:48:37.039Z,7.53
2022-10-26T22:50:40.573Z,10.10
2022-10-26T22:52:45.307Z,7.70
2022-10-26T22:54:48.572Z,4.77
2022-10-26T22:56:51.862Z,7.13
2022-10-26T22:58:55.056Z,5.70
2022-10-26T23:01:03.971Z,5.67
2022-10-26T23:03:07.978Z,10.43
2022-10-26T23:05:11.347Z,5.83
2022-10-26T23:07:14.581Z,6.27
2022-10-26T23:09:19.565Z,12.17
2022-10-26T23:11:24.493Z,8.30
2022-10-26T23:13:28.450Z,5.00
2022-10-26T23:15:31.732Z,7.13
2022-10-26T23:17:35.343Z,6.60
2022-10-26T23:19:38.571Z,7.07
2022-10-26T23:21:41.759Z,11.20
2022-10-26T23:23:45.272Z,5.60
2022-10-26T23:25:49.930Z,10.53
2022-10-26T23:27:53.086Z,4.63
2022-10-26T23:29:56.292Z,4.73
2022-10-26T23:31:59.573Z,10.10
2022-10-26T23:34:02.787Z,5.77
2022-10-26T23:36:06.801Z,11.03
2022-10-26T23:38:10.077Z,5.47
2022-10-26T23:40:13.780Z,10.30
2022-10-26T23:42:18.504Z,5.20
2022-10-26T23:44:21.719Z,5.60
2022-10-26T23:46:24.856Z,6.37
2022-10-26T23:48:28.267Z,7.97
2022-10-26T23:50:31.485Z,8.40
2022-10-26T23:52:34.780Z,7.13
2022-10-26T23:54:38.150Z,5.67
2022-10-26T23:56:41.387Z,4.63
2022-10-26T23:58:46.027Z,10.70
